Time;durP1;ratioP1;P1;durP2;ratioP2;P2;SDS_P1;SDS_P2;PMS_P1;PMS_P2;Temp;Humidity;BMP_temperature;BMP_pressure;BME280_temperature;BME280_humidity;BME280_pressure;Samples;Min_cycle;Max_cycle;Signal;HPM_P1;HPM_P2
2021/01/28 00:01:57;;;;;;;10.97;7.00;;;1.70;99.90;;;;;;5035931;28;20497;-88
2021/01/28 00:04:23;;;;;;;11.90;6.20;;;1.70;99.90;;;;;;5052825;28;20086;-89
2021/01/28 00:06:48;;;;;;;10.33;6.50;;;1.70;99.90;;;;;;5057449;28;20036;-88
2021/01/28 00:09:14;;;;;;;9.60;6.20;;;1.70;99.90;;;;;;5036719;28;20082;-88
2021/01/28 00:11:39;;;;;;;11.40;7.30;;;1.70;99.90;;;;;;5038256;28;20044;-89
2021/01/28 00:14:05;;;;;;;9.87;6.23;;;1.70;99.90;;;;;;5027651;28;20393;-88
2021/01/28 00:16:31;;;;;;;10.23;6.17;;;1.70;99.90;;;;;;5028198;28;20454;-89
2021/01/28 00:18:56;;;;;;;11.00;6.50;;;1.70;99.90;;;;;;5028294;28;20021;-89
2021/01/28 00:21:22;;;;;;;10.47;5.77;;;1.70;99.90;;;;;;5033300;28;20033;-89
2021/01/28 00:23:48;;;;;;;9.87;6.00;;;1.70;99.90;;;;;;5038396;28;20075;-89
2021/01/28 00:26:14;;;;;;;10.43;6.13;;;1.70;99.90;;;;;;5041543;28;20362;-88
2021/01/28 00:28:40;;;;;;;8.67;5.60;;;1.70;99.90;;;;;;5029890;28;20112;-89
2021/01/28 00:31:05;;;;;;;10.63;5.63;;;1.70;99.90;;;;;;5027106;28;20048;-88
2021/01/28 00:33:31;;;;;;;9.90;5.60;;;1.70;99.90;;;;;;5035398;28;20025;-88
2021/01/28 00:35:57;;;;;;;8.20;4.83;;;1.70;99.90;;;;;;5060266;28;20385;-89
2021/01/28 00:38:29;;;;;;;9.80;5.40;;;1.80;99.90;;;;;;5024206;28;20509;-90
2021/01/28 00:40:56;;;;;;;8.30;4.80;;;1.80;99.90;;;;;;5034545;28;20025;-89
2021/01/28 00:43:22;;;;;;;9.43;5.03;;;1.80;99.90;;;;;;5035760;28;20412;-89
2021/01/28 00:45:49;;;;;;;8.63;5.27;;;1.80;99.90;;;;;;5051077;28;20482;-88
2021/01/28 00:48:15;;;;;;;9.03;5.37;;;1.90;99.90;;;;;;5032482;28;20029;-89
2021/01/28 00:50:42;;;;;;;8.10;4.47;;;1.80;99.90;;;;;;5033040;28;20017;-88
2021/01/28 00:53:10;;;;;;;6.93;4.30;;;1.90;99.90;;;;;;5028867;28;20017;-88
2021/01/28 00:55:36;;;;;;;8.03;4.87;;;1.90;99.90;;;;;;5036879;28;20105;-89
2021/01/28 00:58:02;;;;;;;7.67;4.43;;;2.00;99.90;;;;;;5033650;28;20659;-88
2021/01/28 01:00:32;;;;;;;8.13;5.10;;;2.10;99.90;;;;;;5052600;28;20033;-88
2021/01/28 01:02:58;;;;;;;8.07;4.50;;;2.00;99.90;;;;;;5034296;28;20355;-89
2021/01/28 01:05:27;;;;;;;8.13;4.23;;;1.90;99.90;;;;;;5033230;28;20028;-89
2021/01/28 01:07:52;;;;;;;8.30;4.50;;;2.00;99.90;;;;;;5031740;28;20029;-89
2021/01/28 01:10:38;;;;;;;8.37;5.03;;;2.00;99.90;;;;;;5030397;28;20510;-89
2021/01/28 01:13:06;;;;;;;7.33;4.33;;;1.90;99.90;;;;;;5034391;28;20017;-89
2021/01/28 01:15:31;;;;;;;7.83;4.47;;;2.00;99.90;;;;;;5032288;28;20083;-88
2021/01/28 01:17:57;;;;;;;7.87;4.33;;;2.00;99.90;;;;;;5034014;28;20029;-89
2021/01/28 01:20:23;;;;;;;7.60;4.43;;;1.90;99.90;;;;;;5035985;28;20048;-88
2021/01/28 01:22:49;;;;;;;7.50;4.67;;;2.00;99.90;;;;;;5028234;28;20111;-88
2021/01/28 01:25:17;;;;;;;6.73;4.20;;;2.10;99.90;;;;;;5031884;28;20504;-89
2021/01/28 01:27:43;;;;;;;7.50;4.57;;;2.00;99.90;;;;;;5040005;28;20041;-89
2021/01/28 01:30:09;;;;;;;7.70;4.70;;;2.00;99.90;;;;;;5032631;28;20017;-89
2021/01/28 01:32:35;;;;;;;7.47;4.47;;;2.00;99.90;;;;;;5039782;28;20070;-89
2021/01/28 01:35:03;;;;;;;7.27;4.50;;;2.00;99.90;;;;;;5031462;28;20029;-89
2021/01/28 01:37:28;;;;;;;7.47;4.40;;;2.00;99.90;;;;;;5034649;28;20024;-89
2021/01/28 01:39:54;;;;;;;8.43;4.60;;;2.00;99.90;;;;;;5059351;28;20140;-88
2021/01/28 01:42:20;;;;;;;8.03;4.67;;;2.00;99.90;;;;;;5037357;28;20032;-89
2021/01/28 01:44:47;;;;;;;7.17;4.50;;;2.00;99.90;;;;;;5032860;28;20024;-88
2021/01/28 01:47:34;;;;;;;8.10;4.10;;;2.00;99.90;;;;;;5028790;28;20052;-88
2021/01/28 01:50:01;;;;;;;7.13;3.83;;;2.00;99.90;;;;;;5029487;28;20594;-89
2021/01/28 01:52:31;;;;;;;8.33;4.07;;;2.00;99.90;;;;;;5034158;28;20028;-89
2021/01/28 01:54:58;;;;;;;7.27;4.10;;;2.00;99.90;;;;;;5040752;28;20109;-88
2021/01/28 01:57:29;;;;;;;6.93;4.07;;;2.00;99.90;;;;;;5047466;28;20393;-87
2021/01/28 02:00:04;;;;;;;8.07;4.70;;;2.00;99.90;;;;;;5037510;28;20438;-89
2021/01/28 02:02:34;;;;;;;8.23;4.57;;;2.10;99.90;;;;;;5025807;28;20436;-88
2021/01/28 02:05:11;;;;;;;6.90;3.90;;;2.00;99.90;;;;;;5035900;28;20054;-89
2021/01/28 02:07:36;;;;;;;7.33;4.40;;;2.00;99.90;;;;;;5028783;28;20116;-89
2021/01/28 02:10:04;;;;;;;8.20;4.53;;;2.00;99.90;;;;;;5032313;28;20061;-88
2021/01/28 02:12:30;;;;;;;7.63;4.40;;;2.00;99.90;;;;;;5035706;28;20025;-88
2021/01/28 02:14:56;;;;;;;7.60;4.37;;;2.00;99.90;;;;;;5047145;28;20104;-89
2021/01/28 02:17:23;;;;;;;7.50;3.90;;;2.00;99.90;;;;;;5036233;28;20021;-89
2021/01/28 02:19:52;;;;;;;9.13;4.27;;;2.00;99.90;;;;;;5034823;28;20382;-88
2021/01/28 02:22:27;;;;;;;7.57;4.20;;;2.00;99.90;;;;;;5032110;28;20036;-89
2021/01/28 02:25:20;;;;;;;7.33;3.63;;;2.00;99.90;;;;;;5043419;28;20089;-88
2021/01/28 02:27:46;;;;;;;6.70;3.80;;;2.00;99.90;;;;;;5037734;28;20032;-89
2021/01/28 02:30:26;;;;;;;6.77;4.00;;;2.00;99.90;;;;;;5024687;28;20238;-88
2021/01/28 02:32:53;;;;;;;6.37;3.50;;;2.00;99.90;;;;;;5034424;28;20468;-89
2021/01/28 02:35:30;;;;;;;6.53;3.80;;;2.00;99.90;;;;;;5034475;28;20032;-88
2021/01/28 02:37:58;;;;;;;7.03;4.30;;;2.00;99.90;;;;;;5030347;28;20025;-89
2021/01/28 02:40:25;;;;;;;8.47;4.03;;;2.00;99.90;;;;;;5047870;28;20148;-89
2021/01/28 02:42:51;;;;;;;6.63;3.40;;;2.00;99.90;;;;;;5051545;28;20048;-89
2021/01/28 02:45:30;;;;;;;6.83;4.07;;;2.10;99.90;;;;;;5061339;28;20083;-88
2021/01/28 02:47:59;;;;;;;7.57;4.00;;;2.10;99.90;;;;;;5035898;28;20600;-89
2021/01/28 02:50:26;;;;;;;7.53;3.93;;;2.10;99.90;;;;;;5028914;28;20030;-89
2021/01/28 02:52:56;;;;;;;6.90;3.70;;;2.10;99.90;;;;;;5024043;28;20032;-89
2021/01/28 02:55:23;;;;;;;7.20;3.40;;;2.10;99.90;;;;;;5051509;28;20104;-88
2021/01/28 02:57:49;;;;;;;7.67;3.43;;;2.10;99.90;;;;;;5040266;28;20029;-89
2021/01/28 03:00:24;;;;;;;7.47;3.50;;;2.10;99.90;;;;;;5035039;28;20398;-88
2021/01/28 03:02:51;;;;;;;6.20;3.20;;;2.20;99.90;;;;;;5056563;28;20063;-88
2021/01/28 03:05:17;;;;;;;5.53;2.90;;;2.30;99.90;;;;;;5041693;28;20095;-88
2021/01/28 03:07:43;;;;;;;6.93;3.30;;;2.20;99.90;;;;;;5041939;28;20036;-88
2021/01/28 03:10:09;;;;;;;6.47;3.50;;;2.30;99.90;;;;;;5055363;28;20021;-88
2021/01/28 03:12:35;;;;;;;6.37;3.43;;;2.30;99.90;;;;;;5056929;28;20044;-89
2021/01/28 03:15:01;;;;;;;5.40;3.27;;;2.30;99.90;;;;;;5048053;28;20469;-89
2021/01/28 03:17:26;;;;;;;6.07;3.07;;;2.30;99.90;;;;;;5052786;28;20135;-88
2021/01/28 03:19:52;;;;;;;7.57;3.73;;;2.30;99.90;;;;;;5070844;28;20021;-89
2021/01/28 03:22:17;;;;;;;6.17;3.60;;;2.30;99.90;;;;;;5040910;28;20105;-89
2021/01/28 03:24:43;;;;;;;7.37;3.57;;;2.20;99.90;;;;;;5055745;28;20056;-89
2021/01/28 03:27:09;;;;;;;6.77;3.17;;;2.20;99.90;;;;;;5038231;28;20439;-88
2021/01/28 03:29:35;;;;;;;6.40;3.60;;;2.20;99.90;;;;;;5021296;28;20025;-88
2021/01/28 03:32:00;;;;;;;5.83;3.17;;;2.20;99.90;;;;;;5038250;28;20504;-88
2021/01/28 03:34:26;;;;;;;6.80;3.50;;;2.20;99.90;;;;;;5035192;28;20036;-89
2021/01/28 03:36:51;;;;;;;7.37;3.97;;;2.20;99.90;;;;;;5028539;28;20026;-88
2021/01/28 03:39:17;;;;;;;6.63;3.50;;;2.30;99.90;;;;;;5037145;28;20052;-88
2021/01/28 03:41:43;;;;;;;6.97;3.90;;;2.30;99.90;;;;;;5037364;28;20025;-88
2021/01/28 03:44:08;;;;;;;6.33;3.30;;;2.30;99.90;;;;;;5041829;28;20047;-88
2021/01/28 03:46:34;;;;;;;8.23;4.00;;;2.30;99.90;;;;;;5033438;28;20033;-88
2021/01/28 03:49:03;;;;;;;7.37;3.50;;;2.40;99.90;;;;;;5028890;28;20051;-89
2021/01/28 03:51:28;;;;;;;7.00;3.23;;;2.40;99.90;;;;;;5037487;28;20036;-88
2021/01/28 03:53:54;;;;;;;6.57;3.47;;;2.40;99.90;;;;;;5039318;28;20017;-89
2021/01/28 03:56:20;;;;;;;10.00;3.40;;;2.50;99.90;;;;;;5038824;28;20116;-89
2021/01/28 03:58:45;;;;;;;5.73;2.90;;;2.50;99.90;;;;;;5032796;28;20117;-88
2021/01/28 04:01:11;;;;;;;5.83;3.30;;;2.50;99.90;;;;;;5035036;28;20079;-88
2021/01/28 04:03:37;;;;;;;6.40;3.60;;;2.50;99.90;;;;;;5027999;28;20021;-88
2021/01/28 04:06:02;;;;;;;5.60;3.17;;;2.50;99.90;;;;;;5039735;28;20040;-88
2021/01/28 04:08:28;;;;;;;7.20;3.43;;;2.50;99.90;;;;;;5031474;28;20029;-88
2021/01/28 04:10:54;;;;;;;8.27;4.00;;;2.50;99.90;;;;;;5053370;28;20100;-88
2021/01/28 04:13:19;;;;;;;7.10;4.00;;;2.50;99.90;;;;;;5049457;28;20528;-89
2021/01/28 04:15:45;;;;;;;7.87;3.90;;;2.40;99.90;;;;;;5037301;28;20060;-88
2021/01/28 04:18:12;;;;;;;8.07;3.93;;;2.40;99.90;;;;;;5048532;28;20025;-88
2021/01/28 04:20:37;;;;;;;7.93;4.00;;;2.40;99.90;;;;;;5056679;28;20031;-89
2021/01/28 04:23:04;;;;;;;7.03;3.73;;;2.40;99.90;;;;;;5066495;28;20025;-88
2021/01/28 04:25:29;;;;;;;7.73;4.03;;;2.40;99.90;;;;;;5037335;28;20556;-88
2021/01/28 04:27:56;;;;;;;9.63;4.30;;;2.40;99.90;;;;;;5037715;28;20029;-87
2021/01/28 04:30:31;;;;;;;9.90;4.70;;;2.40;99.90;;;;;;5038241;28;20132;-89
2021/01/28 04:32:58;;;;;;;7.80;4.17;;;2.40;99.90;;;;;;5032987;28;20017;-88
2021/01/28 04:35:24;;;;;;;8.27;4.33;;;2.40;99.90;;;;;;5055779;28;20021;-89
2021/01/28 04:37:51;;;;;;;8.27;4.60;;;2.40;99.90;;;;;;5056385;28;20043;-89
2021/01/28 04:40:26;;;;;;;8.83;4.93;;;2.40;99.90;;;;;;5040720;28;20040;-89
2021/01/28 04:42:52;;;;;;;9.30;5.00;;;2.40;99.90;;;;;;5038444;28;20056;-88
2021/01/28 04:45:21;;;;;;;9.93;4.83;;;2.40;99.90;;;;;;5046013;28;20082;-88
2021/01/28 04:47:55;;;;;;;10.80;5.40;;;2.40;99.90;;;;;;5021505;28;20500;-89
2021/01/28 04:50:25;;;;;;;11.80;5.57;;;2.30;99.90;;;;;;5032851;28;20047;-87
2021/01/28 04:52:53;;;;;;;9.73;4.97;;;2.30;99.90;;;;;;5038233;28;20021;-88
2021/01/28 04:55:28;;;;;;;10.70;5.90;;;2.30;99.90;;;;;;5033646;28;20689;-88
2021/01/28 04:57:54;;;;;;;9.87;5.47;;;2.40;99.90;;;;;;5047102;22;20021;-86
2021/01/28 05:00:20;;;;;;;9.67;4.97;;;2.30;99.90;;;;;;5014795;28;20468;-87
2021/01/28 05:02:45;;;;;;;10.73;5.30;;;2.40;99.90;;;;;;5016281;28;20044;-87
2021/01/28 05:05:12;;;;;;;11.00;5.93;;;2.40;99.90;;;;;;5022106;28;20025;-86
2021/01/28 05:07:38;;;;;;;11.67;5.67;;;2.30;99.90;;;;;;5017377;28;20029;-87
2021/01/28 05:10:17;;;;;;;9.87;5.30;;;2.40;99.90;;;;;;5010921;28;20057;-86
2021/01/28 05:12:52;;;;;;;10.57;5.70;;;2.40;99.90;;;;;;5019895;28;20033;-86
2021/01/28 05:15:22;;;;;;;9.80;5.47;;;2.30;99.90;;;;;;4998020;28;20117;-87
2021/01/28 05:17:58;;;;;;;9.23;5.07;;;2.40;99.90;;;;;;5003795;28;20029;-87
2021/01/28 05:20:26;;;;;;;10.40;5.73;;;2.40;99.90;;;;;;5006908;28;20049;-87
2021/01/28 05:23:05;;;;;;;10.13;4.80;;;2.40;99.90;;;;;;5020466;28;20101;-87
2021/01/28 05:25:35;;;;;;;11.07;4.87;;;2.30;99.90;;;;;;5014361;28;20069;-86
2021/01/28 05:28:26;;;;;;;8.77;5.00;;;2.30;99.90;;;;;;4996955;28;20065;-87
2021/01/28 05:30:53;;;;;;;9.83;5.30;;;2.40;99.90;;;;;;5014135;28;20070;-86
2021/01/28 05:33:31;;;;;;;10.13;5.17;;;2.30;99.90;;;;;;5002124;28;20034;-87
2021/01/28 05:36:16;;;;;;;9.73;5.13;;;2.30;99.90;;;;;;5003834;28;20034;-86
2021/01/28 05:38:48;;;;;;;9.40;5.10;;;2.30;99.90;;;;;;4992602;28;20029;-87
2021/01/28 05:41:29;;;;;;;8.93;4.38;;;2.30;99.90;;;;;;4995272;28;20030;-86
2021/01/28 05:43:55;;;;;;;10.57;4.60;;;2.30;99.90;;;;;;4998855;28;20759;-86
2021/01/28 05:46:28;;;;;;;8.40;4.50;;;2.30;99.90;;;;;;4996937;28;20061;-86
2021/01/28 05:49:08;;;;;;;8.13;4.20;;;2.40;99.90;;;;;;4988760;28;20033;-86
2021/01/28 05:51:39;;;;;;;9.20;4.70;;;2.30;99.90;;;;;;4998655;28;20475;-87
2021/01/28 05:54:14;;;;;;;5.78;3.58;;;2.30;99.90;;;;;;4995032;28;20064;-87
2021/01/28 05:57:19;;;;;;;10.90;5.00;;;2.40;99.90;;;;;;4998726;28;20026;-86
2021/01/28 05:59:53;;;;;;;10.33;4.23;;;2.40;99.90;;;;;;4933661;28;20492;-87
2021/01/28 06:02:44;;;;;;;8.47;4.20;;;2.40;99.90;;;;;;5000819;28;20042;-87
2021/01/28 06:05:12;;;;;;;8.20;4.13;;;2.30;99.90;;;;;;4997474;28;20486;-87
2021/01/28 06:07:50;;;;;;;7.57;4.27;;;2.30;99.90;;;;;;4994142;28;20025;-87
2021/01/28 06:10:31;;;;;;;8.37;4.60;;;2.30;99.90;;;;;;4997128;28;20021;-88
2021/01/28 06:13:27;;;;;;;9.60;4.67;;;2.30;99.90;;;;;;4992455;28;20026;-88
2021/01/28 06:16:02;;;;;;;9.00;4.03;;;2.30;99.90;;;;;;5010432;28;20029;-88
2021/01/28 06:18:50;;;;;;;9.03;4.53;;;2.30;99.90;;;;;;4998797;28;20502;-89
2021/01/28 06:21:29;;;;;;;8.67;4.57;;;2.40;99.90;;;;;;4992345;28;20045;-88
2021/01/28 06:24:32;;;;;;;7.70;4.30;;;2.40;99.90;;;;;;4998794;28;20485;-88
2021/01/28 06:26:58;;;;;;;9.40;4.90;;;2.40;99.90;;;;;;4963983;28;20037;-87
2021/01/28 06:30:00;;;;;;;9.47;4.57;;;2.40;99.90;;;;;;4995714;28;20022;-89
2021/01/28 06:32:47;;;;;;;10.18;5.10;;;2.40;99.90;;;;;;5003976;28;20026;-88
2021/01/28 06:35:45;;;;;;;8.27;4.53;;;2.40;99.90;;;;;;5013865;28;20021;-88
2021/01/28 06:38:28;;;;;;;9.70;4.90;;;2.40;99.90;;;;;;4992787;28;20034;-88
2021/01/28 06:41:11;;;;;;;12.93;5.67;;;2.40;99.90;;;;;;4994029;28;20026;-89
2021/01/28 06:44:23;;;;;;;9.38;4.93;;;2.40;99.90;;;;;;4995537;28;20027;-89
2021/01/28 06:47:18;;;;;;;9.93;4.60;;;2.40;99.90;;;;;;5004248;28;20036;-88
2021/01/28 06:50:07;;;;;;;11.00;4.93;;;2.40;99.90;;;;;;4976048;28;20050;-88
2021/01/28 06:52:39;;;;;;;10.53;4.97;;;2.40;99.90;;;;;;4986764;28;20028;-88
2021/01/28 06:55:05;;;;;;;;;;;2.40;99.90;;;;;;5000354;28;20024;-88
2021/01/28 06:57:54;;;;;;;9.50;4.40;;;2.40;99.90;;;;;;5005459;28;20290;-88
2021/01/28 07:00:52;;;;;;;10.67;4.50;;;2.40;99.90;;;;;;4996027;28;20030;-88
2021/01/28 07:06:48;;;;;;;9.37;4.43;;;2.50;99.90;;;;;;5014329;28;20025;-88
2021/01/28 07:09:28;;;;;;;10.90;4.50;;;2.50;99.90;;;;;;4996767;28;20026;-88
2021/01/28 07:11:58;;;;;;;8.60;4.10;;;2.60;99.90;;;;;;4997528;28;20117;-88
2021/01/28 07:14:47;;;;;;;11.00;4.40;;;2.60;99.90;;;;;;4995741;28;20108;-88
2021/01/28 07:17:49;;;;;;;9.30;4.80;;;2.60;99.90;;;;;;5000891;28;20022;-89
2021/01/28 07:20:55;;;;;;;7.95;3.53;;;2.60;99.90;;;;;;4953696;28;20035;-89
2021/01/28 07:23:31;;;;;;;11.03;4.43;;;2.70;99.90;;;;;;4999486;28;20066;-92
2021/01/28 07:26:20;;;;;;;9.13;4.07;;;2.70;99.90;;;;;;5000089;28;20030;-88
2021/01/28 07:29:27;;;;;;;9.73;4.03;;;2.70;99.90;;;;;;4994814;28;20026;-88
2021/01/28 07:32:03;;;;;;;10.93;3.97;;;2.70;99.90;;;;;;4994375;28;20053;-89
2021/01/28 07:34:35;;;;;;;11.30;4.23;;;2.80;99.90;;;;;;4994534;28;20061;-88
2021/01/28 07:37:24;;;;;;;8.48;3.58;;;2.80;99.90;;;;;;4994650;28;20386;-88
2021/01/28 07:39:49;;;;;;;10.50;3.80;;;2.80;99.90;;;;;;4999525;28;20053;-88
2021/01/28 07:42:31;;;;;;;8.40;4.23;;;2.80;99.90;;;;;;4998217;28;20065;-88
2021/01/28 07:45:43;;;;;;;6.30;2.97;;;2.90;99.90;;;;;;4994672;28;20022;-88
2021/01/28 07:48:29;;;;;;;10.07;4.10;;;2.90;99.90;;;;;;4994923;28;20036;-89
2021/01/28 07:51:27;;;;;;;10.23;4.00;;;2.80;99.90;;;;;;5002953;28;20018;-89
2021/01/28 07:53:57;;;;;;;12.50;4.27;;;2.80;99.90;;;;;;5016307;28;20017;-89
2021/01/28 07:56:44;;;;;;;8.30;3.87;;;2.80;99.90;;;;;;4999957;28;20486;-88
2021/01/28 08:06:42;;;;;;;16.40;4.80;;;2.80;99.90;;;;;;5017420;28;20088;-91
2021/01/28 08:09:52;;;;;;;7.63;3.03;;;2.90;99.90;;;;;;4997908;28;20442;-92
2021/01/28 08:26:50;;;;;;;7.70;3.00;;;3.00;99.90;;;;;;4938431;29;20027;-92
2021/01/28 08:29:20;;;;;;;;;;;3.00;99.90;;;;;;4946220;28;20041;-94
2021/01/28 08:31:50;;;;;;;7.13;2.87;;;3.10;99.90;;;;;;4999750;28;19905;-92
2021/01/28 08:34:24;;;;;;;5.97;2.87;;;3.10;99.90;;;;;;4999564;28;20025;-93
2021/01/28 08:37:03;;;;;;;6.50;2.50;;;3.10;99.90;;;;;;5005944;28;20064;-93
2021/01/28 08:39:36;;;;;;;6.13;2.80;;;3.10;99.90;;;;;;5030596;28;20042;-93
2021/01/28 08:42:05;;;;;;;6.77;2.67;;;3.20;99.90;;;;;;5026982;28;20034;-93
2021/01/28 08:44:34;;;;;;;6.80;2.97;;;3.20;99.90;;;;;;5005422;28;20026;-93
2021/01/28 08:47:06;;;;;;;4.10;2.03;;;3.20;99.90;;;;;;4991793;28;20030;-93
2021/01/28 08:49:32;;;;;;;8.40;2.23;;;3.30;99.90;;;;;;5008926;28;20017;-92
2021/01/28 08:52:15;;;;;;;6.60;2.40;;;3.20;99.90;;;;;;5018636;28;20089;-94
2021/01/28 08:55:19;;;;;;;5.47;2.00;;;3.30;99.90;;;;;;5022269;28;20051;-93
2021/01/28 08:57:45;;;;;;;5.40;1.83;;;3.30;99.90;;;;;;5002402;28;20033;-94
2021/01/28 09:00:18;;;;;;;5.43;2.00;;;3.40;99.90;;;;;;4998532;28;20493;-93
2021/01/28 09:02:51;;;;;;;5.90;2.73;;;3.40;99.90;;;;;;5007552;28;20105;-94
2021/01/28 09:05:30;;;;;;;5.47;2.03;;;3.40;99.90;;;;;;5015317;28;20437;-94
2021/01/28 09:08:20;;;;;;;3.70;1.63;;;3.40;99.90;;;;;;5021390;28;20258;-93
2021/01/28 09:10:46;;;;;;;4.97;1.97;;;3.40;99.90;;;;;;5018419;28;20053;-94
2021/01/28 09:13:25;;;;;;;4.77;2.00;;;3.40;99.90;;;;;;5020789;28;20014;-94
2021/01/28 09:16:14;;;;;;;5.73;1.93;;;3.40;99.90;;;;;;5020574;28;20022;-93
2021/01/28 09:18:46;;;;;;;4.37;1.83;;;3.50;99.90;;;;;;5015336;28;20041;-94
2021/01/28 09:21:19;;;;;;;4.88;1.98;;;3.50;99.90;;;;;;5010933;28;20030;-93
2021/01/28 09:24:15;;;;;;;4.00;2.10;;;3.50;99.90;;;;;;5001045;28;20037;-93
2021/01/28 09:26:41;;;;;;;4.83;1.67;;;3.60;99.90;;;;;;4996419;28;20041;-94
2021/01/28 09:29:22;;;;;;;5.63;2.00;;;3.60;99.90;;;;;;5022426;28;20030;-94
2021/01/28 09:31:50;;;;;;;4.93;1.70;;;3.60;99.90;;;;;;4999717;28;20022;-93
2021/01/28 09:34:31;;;;;;;4.23;1.63;;;3.70;99.90;;;;;;5004178;28;20045;-93
2021/01/28 09:37:15;;;;;;;4.73;1.90;;;3.70;99.90;;;;;;5005704;28;20125;-93
2021/01/28 09:39:52;;;;;;;4.73;1.87;;;3.70;99.90;;;;;;4998913;28;20034;-93
2021/01/28 09:42:33;;;;;;;3.83;1.77;;;3.80;99.90;;;;;;5000234;28;20033;-94
2021/01/28 09:45:07;;;;;;;3.77;1.37;;;3.80;99.90;;;;;;5005728;28;20094;-92
2021/01/28 09:47:33;;;;;;;4.23;1.30;;;3.80;99.90;;;;;;4996615;28;20025;-93
2021/01/28 09:50:06;;;;;;;5.03;1.20;;;3.80;99.90;;;;;;4991931;28;20037;-93
2021/01/28 09:52:38;;;;;;;3.43;1.00;;;3.90;99.90;;;;;;5005672;28;20030;-93
2021/01/28 09:55:12;;;;;;;3.17;1.20;;;4.00;99.90;;;;;;4998593;28;20033;-93
2021/01/28 09:57:39;;;;;;;3.07;0.97;;;4.00;99.90;;;;;;4996968;28;20033;-91
2021/01/28 10:00:12;;;;;;;3.67;1.40;;;4.10;99.90;;;;;;4988451;28;20026;-92
2021/01/28 10:02:49;;;;;;;2.33;0.80;;;4.10;99.90;;;;;;4994774;28;20021;-92
2021/01/28 10:05:20;;;;;;;2.87;1.10;;;4.10;99.90;;;;;;5007037;28;20025;-92
2021/01/28 10:07:47;;;;;;;3.70;1.30;;;4.20;99.90;;;;;;4997575;28;20022;-92
2021/01/28 10:10:15;;;;;;;5.33;1.37;;;4.10;99.90;;;;;;4993397;28;20022;-92
2021/01/28 10:12:42;;;;;;;4.47;1.37;;;4.10;99.90;;;;;;4994727;28;20391;-92
2021/01/28 10:15:09;;;;;;;3.67;1.23;;;4.10;99.90;;;;;;5011138;28;20022;-92
2021/01/28 10:17:34;;;;;;;2.83;1.27;;;4.10;99.90;;;;;;4991141;28;20018;-90
2021/01/28 10:20:00;;;;;;;3.43;1.10;;;4.20;99.90;;;;;;4988610;28;20088;-91
2021/01/28 10:22:26;;;;;;;5.17;1.10;;;4.10;99.90;;;;;;4993208;28;20172;-92
2021/01/28 10:24:52;;;;;;;2.93;1.20;;;4.20;99.90;;;;;;4990402;28;20022;-91
2021/01/28 10:27:21;;;;;;;3.70;1.27;;;4.20;99.90;;;;;;4994851;28;20040;-92
2021/01/28 10:29:46;;;;;;;3.03;0.90;;;4.20;99.90;;;;;;5009715;28;20026;-92
2021/01/28 10:32:15;;;;;;;3.13;0.90;;;4.20;99.90;;;;;;4990357;28;20536;-92
2021/01/28 10:34:46;;;;;;;3.53;1.10;;;4.30;99.90;;;;;;5012802;28;20101;-93
2021/01/28 10:37:13;;;;;;;5.88;1.20;;;4.30;99.90;;;;;;4988813;28;20095;-93
2021/01/28 10:39:41;;;;;;;3.50;1.00;;;4.30;99.90;;;;;;4993073;28;20034;-93
2021/01/28 10:42:15;;;;;;;6.57;1.00;;;4.30;99.90;;;;;;4993004;28;20558;-93
2021/01/28 10:44:41;;;;;;;3.93;0.90;;;4.40;99.90;;;;;;4989155;28;20037;-93
2021/01/28 10:47:09;;;;;;;2.77;0.80;;;4.40;99.90;;;;;;4992344;28;20087;-91
2021/01/28 10:49:36;;;;;;;2.63;0.70;;;4.50;99.90;;;;;;4992316;28;20026;-91
2021/01/28 10:52:02;;;;;;;2.60;0.90;;;4.50;99.90;;;;;;4993217;28;20033;-91
2021/01/28 10:54:27;;;;;;;2.20;0.67;;;4.50;99.90;;;;;;4995694;28;20034;-92
2021/01/28 10:56:54;;;;;;;4.50;0.83;;;4.50;99.90;;;;;;4993901;28;20026;-90
2021/01/28 12:12:35;;;;;;;2.10;0.70;;;5.90;99.90;;;;;;4082127;22;20045;-92
2021/01/28 12:15:11;;;;;;;2.63;0.60;;;6.00;99.90;;;;;;5013571;28;20029;-92
2021/01/28 12:17:52;;;;;;;1.87;0.60;;;6.10;99.90;;;;;;5018863;28;20037;-93
2021/01/28 12:20:24;;;;;;;2.20;0.60;;;6.20;99.90;;;;;;4993468;28;20033;-92
2021/01/28 12:22:50;;;;;;;;;;;6.20;99.90;;;;;;5008151;28;20030;-93
2021/01/28 12:25:41;;;;;;;2.40;0.70;;;6.40;99.90;;;;;;5011585;28;19909;-96
2021/01/28 14:55:52;;;;;;;2.83;0.83;;;8.80;99.90;;;;;;5026479;28;20057;-88
2021/01/28 14:58:18;;;;;;;0.50;0.30;;;8.90;99.90;;;;;;5016112;28;20030;-88
2021/01/28 15:00:44;;;;;;;1.70;0.53;;;8.90;99.90;;;;;;5020305;28;20040;-88
2021/01/28 15:03:10;;;;;;;3.90;1.47;;;8.80;99.90;;;;;;5013795;28;20401;-88
2021/01/28 15:05:35;;;;;;;0.70;0.30;;;8.70;99.90;;;;;;5010669;28;20029;-89
2021/01/28 15:08:02;;;;;;;0.27;0.20;;;8.80;99.90;;;;;;5015241;28;20033;-88
2021/01/28 15:10:28;;;;;;;0.60;0.20;;;8.80;99.90;;;;;;5034476;28;20052;-88
2021/01/28 15:12:54;;;;;;;0.90;0.30;;;8.70;99.90;;;;;;5015608;28;20104;-89
2021/01/28 15:15:20;;;;;;;1.80;0.27;;;8.70;99.90;;;;;;5017510;28;20125;-88
2021/01/28 15:17:49;;;;;;;1.17;0.30;;;8.70;99.90;;;;;;5010855;28;20069;-89
2021/01/28 15:20:15;;;;;;;1.03;0.20;;;8.70;99.90;;;;;;5014105;28;20021;-88
2021/01/28 15:22:41;;;;;;;0.77;0.20;;;8.70;99.90;;;;;;5006336;28;20029;-89
2021/01/28 15:25:07;;;;;;;1.83;0.20;;;8.70;99.90;;;;;;5012415;28;20040;-89
2021/01/28 15:27:33;;;;;;;1.37;0.30;;;8.70;99.90;;;;;;5010546;28;20026;-89
2021/01/28 15:30:00;;;;;;;1.00;0.20;;;8.70;99.90;;;;;;5012257;28;20383;-88
2021/01/28 15:32:26;;;;;;;1.03;0.30;;;8.70;99.90;;;;;;5016241;28;20143;-89
2021/01/28 15:34:51;;;;;;;2.20;0.80;;;8.80;99.90;;;;;;5017340;28;20917;-88
2021/01/28 15:37:17;;;;;;;2.07;0.50;;;8.80;99.90;;;;;;5014166;28;20029;-89
2021/01/28 15:39:43;;;;;;;1.53;0.50;;;8.80;99.90;;;;;;5031342;28;20095;-89
2021/01/28 15:42:11;;;;;;;1.57;0.50;;;8.90;99.90;;;;;;5012772;28;20060;-90
2021/01/28 15:44:37;;;;;;;2.03;0.77;;;8.80;99.90;;;;;;5011047;28;20056;-89
2021/01/28 15:47:03;;;;;;;2.80;0.70;;;8.80;99.90;;;;;;5032230;28;20079;-90
2021/01/28 15:49:29;;;;;;;1.53;0.33;;;8.90;99.90;;;;;;5015102;28;20033;-88
2021/01/28 15:51:54;;;;;;;1.90;0.80;;;8.90;99.90;;;;;;5014073;28;20022;-88
2021/01/28 15:54:20;;;;;;;0.67;0.30;;;8.90;99.90;;;;;;5035475;28;20401;-87
2021/01/28 15:56:47;;;;;;;1.47;0.50;;;8.90;99.90;;;;;;5016680;28;20018;-89
2021/01/28 15:59:12;;;;;;;1.97;0.40;;;8.90;99.90;;;;;;5016633;28;20124;-90
2021/01/28 16:01:39;;;;;;;1.53;0.40;;;9.00;99.90;;;;;;5017072;28;20502;-89
2021/01/28 16:04:04;;;;;;;1.97;0.60;;;8.90;99.90;;;;;;5017058;28;20029;-90
2021/01/28 16:06:37;;;;;;;0.73;0.37;;;8.90;99.90;;;;;;5040193;28;20044;-90
2021/01/28 16:09:03;;;;;;;0.90;0.40;;;8.90;99.90;;;;;;5022038;28;20056;-91
2021/01/28 16:11:30;;;;;;;0.97;0.40;;;8.90;99.90;;;;;;5023064;28;20028;-91
2021/01/28 16:13:59;;;;;;;0.97;0.40;;;9.00;99.90;;;;;;5021190;28;20086;-92
2021/01/28 16:16:24;;;;;;;1.67;0.30;;;8.90;99.90;;;;;;5023366;28;20032;-86
2021/01/28 16:18:50;;;;;;;1.40;0.30;;;8.90;99.90;;;;;;5028590;28;20025;-86
2021/01/28 16:21:16;;;;;;;0.77;0.30;;;8.90;99.90;;;;;;5016724;28;20033;-92
2021/01/28 16:23:42;;;;;;;1.53;0.40;;;8.90;99.90;;;;;;5018162;28;20030;-91
2021/01/28 16:26:08;;;;;;;1.60;0.40;;;8.90;99.90;;;;;;5017050;28;20022;-88
2021/01/28 16:28:34;;;;;;;1.60;0.40;;;8.90;99.90;;;;;;5031744;28;20030;-90
2021/01/28 16:31:00;;;;;;;0.97;0.30;;;8.80;99.90;;;;;;5032410;28;20510;-90
2021/01/28 16:33:25;;;;;;;2.63;0.50;;;8.80;99.90;;;;;;5015633;28;20056;-91
2021/01/28 16:35:51;;;;;;;1.77;0.30;;;8.90;99.90;;;;;;5016684;28;20052;-92
2021/01/28 16:38:17;;;;;;;2.47;0.83;;;8.90;99.90;;;;;;5014427;28;20029;-92
2021/01/28 16:40:42;;;;;;;2.90;0.90;;;8.80;99.90;;;;;;5023070;28;20030;-92
2021/01/28 16:43:08;;;;;;;1.20;0.40;;;8.90;99.90;;;;;;5017629;28;20056;-90
2021/01/28 16:45:35;;;;;;;0.90;0.20;;;8.90;99.90;;;;;;5016640;28;20028;-89
2021/01/28 16:48:03;;;;;;;1.60;0.40;;;8.90;99.90;;;;;;5015648;28;20061;-88
2021/01/28 16:50:31;;;;;;;1.47;0.30;;;8.90;99.90;;;;;;5009379;28;20053;-87
2021/01/28 16:52:58;;;;;;;1.33;0.20;;;8.90;99.90;;;;;;5019557;28;20026;-89
2021/01/28 16:55:25;;;;;;;0.37;0.13;;;8.90;99.90;;;;;;5008435;28;20037;-89
2021/01/28 16:57:51;;;;;;;0.90;0.30;;;8.90;99.90;;;;;;5029591;28;20030;-88
2021/01/28 17:02:53;;;;;;;0.40;0.20;;;9.00;99.90;;;;;;5027855;28;20061;-87
2021/01/28 17:05:19;;;;;;;0.80;0.30;;;8.90;99.90;;;;;;5013204;28;20029;-88
2021/01/28 17:07:44;;;;;;;0.87;0.20;;;8.90;99.90;;;;;;5011313;28;20018;-88
2021/01/28 17:10:14;;;;;;;2.40;0.30;;;8.90;99.90;;;;;;5005177;28;20189;-88
2021/01/28 17:12:41;;;;;;;0.40;0.20;;;9.00;99.90;;;;;;4987853;28;20030;-88
2021/01/28 17:15:09;;;;;;;1.23;0.30;;;9.00;99.90;;;;;;4998932;28;20488;-88
2021/01/28 17:17:35;;;;;;;0.33;0.20;;;9.00;99.90;;;;;;5009627;28;20454;-88
2021/01/28 17:20:01;;;;;;;1.30;0.60;;;9.00;99.90;;;;;;5007472;28;20117;-88
2021/01/28 17:22:27;;;;;;;1.07;0.30;;;9.00;99.90;;;;;;4999659;28;20537;-88
2021/01/28 17:24:53;;;;;;;0.87;0.10;;;9.10;99.90;;;;;;5005088;28;20049;-88
2021/01/28 17:27:18;;;;;;;1.70;0.40;;;9.10;99.90;;;;;;5008733;28;20022;-88
2021/01/28 17:29:44;;;;;;;1.07;0.27;;;9.10;99.90;;;;;;4999774;28;20398;-88